createdAt,value
2023-02-20T00:01:31.693Z,10.20
2023-02-20T00:03:58.199Z,10.18
2023-02-20T00:06:24.650Z,10.19
2023-02-20T00:08:51.076Z,10.45
2023-02-20T00:11:17.706Z,10.35
2023-02-20T00:13:48.468Z,10.24
2023-02-20T00:16:15.397Z,10.26
2023-02-20T00:18:41.896Z,10.00
2023-02-20T00:21:08.414Z,9.89
2023-02-20T00:23:35.455Z,9.83
2023-02-20T00:26:01.849Z,9.86
2023-02-20T00:28:29.818Z,9.98
2023-02-20T00:30:56.891Z,9.79
2023-02-20T00:33:23.489Z,9.72
2023-02-20T00:35:49.945Z,9.83
2023-02-20T00:38:16.793Z,9.75
2023-02-20T00:40:43.243Z,9.65
2023-02-20T00:43:09.641Z,9.87
2023-02-20T00:45:36.065Z,9.59
2023-02-20T00:48:02.485Z,9.42
2023-02-20T00:50:28.852Z,9.34
2023-02-20T00:52:55.307Z,9.13
2023-02-20T00:55:21.695Z,9.29
2023-02-20T00:57:48.318Z,9.14
2023-02-20T01:00:21.988Z,9.05
2023-02-20T01:02:48.492Z,9.12
2023-02-20T01:05:15.133Z,8.99
2023-02-20T01:07:41.577Z,8.89
2023-02-20T01:10:09.270Z,8.81
2023-02-20T01:12:35.754Z,8.75
2023-02-20T01:15:02.292Z,8.81
2023-02-20T01:17:28.967Z,8.76
2023-02-20T01:19:56.005Z,8.40
2023-02-20T01:22:22.787Z,8.08
2023-02-20T01:24:49.522Z,7.87
2023-02-20T01:27:16.903Z,7.72
2023-02-20T01:29:43.339Z,7.43
2023-02-20T01:32:12.928Z,7.33
2023-02-20T01:34:40.345Z,7.20
2023-02-20T01:37:06.800Z,7.00
2023-02-20T01:39:33.307Z,6.97
2023-02-20T01:42:06.984Z,7.26
2023-02-20T01:44:35.637Z,7.25
2023-02-20T01:47:09.515Z,7.06
2023-02-20T01:49:38.120Z,7.17
2023-02-20T01:52:27.313Z,6.87
2023-02-20T01:55:11.202Z,6.60
2023-02-20T01:57:43.232Z,6.50
2023-02-20T02:00:14.272Z,6.45
2023-02-20T02:02:44.701Z,6.43
2023-02-20T02:05:12.371Z,6.52
2023-02-20T02:07:39.729Z,6.42
2023-02-20T02:10:07.874Z,6.28
2023-02-20T02:12:35.636Z,6.08
2023-02-20T02:15:02.137Z,6.02
2023-02-20T02:18:11.074Z,5.88
2023-02-20T02:21:16.124Z,5.91
2023-02-20T02:23:48.223Z,5.94
2023-02-20T02:26:32.896Z,5.89
2023-02-20T02:29:15.936Z,5.81
2023-02-20T02:32:00.552Z,5.64
2023-02-20T02:34:55.863Z,5.73
2023-02-20T02:37:31.542Z,5.41
2023-02-20T02:40:00.716Z,5.44
2023-02-20T02:42:44.742Z,5.55
2023-02-20T02:45:38.582Z,5.42
2023-02-20T02:48:24.452Z,5.54
2023-02-20T02:50:54.529Z,5.51
2023-02-20T02:53:21.089Z,5.46
2023-02-20T02:55:47.696Z,5.47
2023-02-20T02:58:15.853Z,5.48
2023-02-20T03:01:00.353Z,5.54
2023-02-20T03:03:37.043Z,5.56
2023-02-20T03:06:15.367Z,5.54
2023-02-20T03:08:57.293Z,5.33
2023-02-20T03:11:26.825Z,5.24
2023-02-20T03:14:37.679Z,5.30
2023-02-20T03:17:12.892Z,5.22
2023-02-20T03:19:46.623Z,5.20
2023-02-20T03:22:24.176Z,5.14
2023-02-20T03:24:56.223Z,5.17
2023-02-20T03:27:59.254Z,5.18
2023-02-20T03:30:40.826Z,5.14
2023-02-20T03:33:33.776Z,5.02
2023-02-20T03:36:20.602Z,5.10
2023-02-20T03:39:12.060Z,5.04
2023-02-20T03:42:00.307Z,5.06
2023-02-20T03:44:28.292Z,5.04
2023-02-20T03:46:57.533Z,4.98
2023-02-20T03:49:31.188Z,5.02
2023-02-20T03:51:58.141Z,5.08
2023-02-20T03:54:25.917Z,4.91
2023-02-20T03:57:01.484Z,5.10
2023-02-20T03:59:37.468Z,4.95
2023-02-20T04:02:10.730Z,4.95
2023-02-20T04:04:45.360Z,4.92
2023-02-20T04:07:24.393Z,4.91
2023-02-20T04:09:52.223Z,4.91
2023-02-20T04:12:32.680Z,4.67
2023-02-20T04:15:01.859Z,4.75
2023-02-20T04:17:32.456Z,4.72
2023-02-20T04:19:58.981Z,4.67
2023-02-20T04:22:31.335Z,4.72
2023-02-20T04:25:35.487Z,4.86
2023-02-20T04:28:05.241Z,4.67
2023-02-20T04:30:32.268Z,4.75
2023-02-20T04:32:58.822Z,4.49
2023-02-20T04:35:25.424Z,4.50
2023-02-20T04:37:51.808Z,4.43
2023-02-20T04:40:21.504Z,4.50
2023-02-20T04:42:48.010Z,4.46
2023-02-20T04:45:14.752Z,4.30
2023-02-20T04:47:41.143Z,4.34
2023-02-20T04:50:07.941Z,4.26
2023-02-20T04:52:34.464Z,4.45
2023-02-20T04:55:00.915Z,4.27
2023-02-20T04:57:27.372Z,4.41
2023-02-20T04:59:53.807Z,4.38
2023-02-20T05:02:20.220Z,4.37
2023-02-20T05:04:46.685Z,4.24
2023-02-20T05:07:13.185Z,4.40
2023-02-20T05:09:43.204Z,4.36
2023-02-20T05:12:10.316Z,4.16
2023-02-20T05:14:36.777Z,4.04
2023-02-20T05:17:03.247Z,4.16
2023-02-20T05:19:29.661Z,4.18
2023-02-20T05:22:14.748Z,4.00
2023-02-20T05:24:44.636Z,4.13
2023-02-20T05:27:12.055Z,4.20
2023-02-20T05:29:38.564Z,4.21
2023-02-20T05:32:05.222Z,4.23
2023-02-20T05:34:31.667Z,4.30
2023-02-20T05:36:58.205Z,4.27
2023-02-20T05:39:24.587Z,4.33
2023-02-20T05:41:51.029Z,4.51
2023-02-20T05:44:17.509Z,4.37
2023-02-20T05:46:44.105Z,4.63
2023-02-20T05:49:11.246Z,4.42
2023-02-20T05:51:38.190Z,4.52
2023-02-20T05:54:05.573Z,4.38
2023-02-20T05:56:33.008Z,4.36
2023-02-20T05:59:00.277Z,4.41
2023-02-20T06:01:29.143Z,4.41
2023-02-20T06:03:55.705Z,4.29
2023-02-20T06:06:23.008Z,4.25
2023-02-20T06:08:49.648Z,4.35
2023-02-20T06:11:16.651Z,4.35
2023-02-20T06:13:44.626Z,4.39
2023-02-20T06:16:11.697Z,4.47
2023-02-20T06:18:42.561Z,4.57
2023-02-20T06:21:10.237Z,4.53
2023-02-20T06:23:42.808Z,4.52
2023-02-20T06:26:09.265Z,4.49
2023-02-20T06:28:37.856Z,4.45
2023-02-20T06:31:05.197Z,4.57
2023-02-20T06:33:31.797Z,4.68
2023-02-20T06:35:58.223Z,4.62
2023-02-20T06:38:25.576Z,4.71
2023-02-20T06:40:52.421Z,4.67
2023-02-20T06:43:19.257Z,4.60
2023-02-20T06:45:46.371Z,4.56
2023-02-20T06:48:16.236Z,4.54
2023-02-20T06:50:43.075Z,4.69
2023-02-20T06:53:09.800Z,4.68
2023-02-20T06:55:36.178Z,4.82
2023-02-20T06:58:02.595Z,4.86
2023-02-20T07:00:29.179Z,4.91
2023-02-20T07:02:55.732Z,5.02
2023-02-20T07:05:22.291Z,4.94
2023-02-20T07:07:49.352Z,4.97
2023-02-20T07:10:15.910Z,5.14
2023-02-20T07:12:42.329Z,5.26
2023-02-20T07:15:11.074Z,5.06
2023-02-20T07:17:37.490Z,4.97
2023-02-20T07:20:05.518Z,4.95
2023-02-20T07:22:31.953Z,4.86
2023-02-20T07:24:58.508Z,5.09
2023-02-20T07:27:25.648Z,5.21
2023-02-20T07:29:52.032Z,5.39
2023-02-20T07:32:20.617Z,5.65
2023-02-20T07:35:02.430Z,5.79
2023-02-20T07:37:29.721Z,5.98
2023-02-20T07:39:56.140Z,6.16
2023-02-20T07:42:22.900Z,6.36
2023-02-20T07:44:49.586Z,6.49
2023-02-20T07:47:16.056Z,6.84
2023-02-20T07:49:42.523Z,7.20
2023-02-20T07:52:08.916Z,7.41
2023-02-20T07:54:35.424Z,7.62
2023-02-20T07:57:02.103Z,7.85
2023-02-20T07:59:28.530Z,8.20
2023-02-20T08:01:54.989Z,8.49
2023-02-20T08:04:21.419Z,8.79
2023-02-20T08:06:47.812Z,9.04
2023-02-20T08:09:14.268Z,9.20
2023-02-20T08:11:40.737Z,9.21
2023-02-20T08:14:07.907Z,9.44
2023-02-20T08:16:34.420Z,9.39
2023-02-20T08:19:01.048Z,9.37
2023-02-20T08:21:27.871Z,9.36
2023-02-20T08:23:55.091Z,9.32
2023-02-20T08:26:21.817Z,9.55
2023-02-20T08:28:49.494Z,9.31
2023-02-20T08:31:29.971Z,9.23
2023-02-20T08:33:57.466Z,9.22
2023-02-20T08:36:23.837Z,9.23
2023-02-20T08:38:50.227Z,9.26
2023-02-20T08:41:16.645Z,9.39
2023-02-20T08:43:44.307Z,9.47
2023-02-20T08:46:11.339Z,9.25
2023-02-20T08:48:38.357Z,9.43
2023-02-20T08:51:06.335Z,9.38
2023-02-20T08:53:33.760Z,9.40
2023-02-20T08:56:00.542Z,9.49
2023-02-20T08:58:27.188Z,9.63
2023-02-20T09:00:54.653Z,9.50
2023-02-20T09:03:21.835Z,9.61
2023-02-20T09:05:48.399Z,9.69
2023-02-20T09:08:14.994Z,9.87
2023-02-20T09:10:41.671Z,10.21
2023-02-20T09:13:08.555Z,10.22
2023-02-20T09:15:39.601Z,10.42
2023-02-20T09:18:09.614Z,10.44
2023-02-20T09:20:37.496Z,10.62
2023-02-20T09:23:04.269Z,10.76
2023-02-20T09:25:30.837Z,10.73
2023-02-20T09:27:57.386Z,10.83
2023-02-20T09:30:24.080Z,10.81
2023-02-20T09:32:51.819Z,10.98
2023-02-20T09:35:23.713Z,11.05
2023-02-20T09:37:50.681Z,11.32
2023-02-20T09:40:21.072Z,11.39
2023-02-20T09:42:59.515Z,11.52
2023-02-20T09:45:29.490Z,11.67
2023-02-20T09:47:58.788Z,11.71
2023-02-20T09:50:28.482Z,11.77
2023-02-20T09:53:02.302Z,11.76
2023-02-20T09:55:36.052Z,11.73
2023-02-20T09:58:05.485Z,12.00
2023-02-20T10:00:35.491Z,12.07
2023-02-20T10:03:25.011Z,12.25
2023-02-20T10:05:52.168Z,12.30
2023-02-20T10:08:21.676Z,12.24
2023-02-20T10:10:53.221Z,12.19
2023-02-20T10:13:34.783Z,12.11
2023-02-20T10:16:07.197Z,12.29
2023-02-20T10:18:33.576Z,12.44
2023-02-20T10:21:23.542Z,12.44
2023-02-20T10:24:05.080Z,12.45
2023-02-20T10:26:46.760Z,12.58
2023-02-20T10:29:27.954Z,12.64
2023-02-20T10:32:08.046Z,12.62
2023-02-20T10:34:57.041Z,12.90
2023-02-20T10:37:35.914Z,12.92
2023-02-20T10:40:21.965Z,13.04
2023-02-20T10:42:54.249Z,13.00
2023-02-20T10:45:37.645Z,12.99
2023-02-20T10:48:09.670Z,13.07
2023-02-20T10:51:05.112Z,13.16
2023-02-20T10:53:46.186Z,13.20
2023-02-20T10:56:20.574Z,12.97
2023-02-20T10:59:11.125Z,13.29
2023-02-20T11:01:39.213Z,13.23
2023-02-20T11:04:27.412Z,13.39
2023-02-20T11:06:59.866Z,13.32
2023-02-20T11:09:27.436Z,13.33
2023-02-20T11:11:55.852Z,13.39
2023-02-20T11:14:42.161Z,13.46
2023-02-20T11:17:20.221Z,13.66
2023-02-20T11:19:53.724Z,13.51
2023-02-20T11:22:44.382Z,13.40
2023-02-20T11:25:31.580Z,13.38
2023-02-20T11:28:08.787Z,13.54
2023-02-20T11:30:39.078Z,13.52
2023-02-20T11:33:06.536Z,13.37
2023-02-20T11:35:40.625Z,13.55
2023-02-20T11:38:18.932Z,13.42
2023-02-20T11:40:48.545Z,13.53
2023-02-20T11:43:25.606Z,13.46
2023-02-20T11:46:08.362Z,13.43
2023-02-20T11:48:34.852Z,13.50
2023-02-20T11:51:01.304Z,13.63
2023-02-20T11:53:32.147Z,13.49
2023-02-20T11:56:17.987Z,13.52
2023-02-20T11:58:46.919Z,13.49
2023-02-20T12:01:35.432Z,13.71
2023-02-20T12:04:01.975Z,13.81
2023-02-20T12:06:33.996Z,13.84
2023-02-20T12:09:03.104Z,14.11
2023-02-20T12:11:30.505Z,13.89
2023-02-20T12:13:59.313Z,13.95
2023-02-20T12:16:42.628Z,13.99
2023-02-20T12:19:18.384Z,14.13
2023-02-20T12:21:50.705Z,14.15
2023-02-20T12:24:52.057Z,14.04
2023-02-20T12:27:43.076Z,13.96
2023-02-20T12:30:21.780Z,13.93
2023-02-20T12:33:06.314Z,14.11
2023-02-20T12:35:35.127Z,14.06
2023-02-20T12:38:39.876Z,14.11
2023-02-20T12:41:27.424Z,14.27
2023-02-20T12:44:02.235Z,14.08
2023-02-20T12:46:58.520Z,14.08
2023-02-20T12:49:39.938Z,14.22
2023-02-20T12:52:20.889Z,14.19
2023-02-20T12:55:14.711Z,14.33
2023-02-20T12:57:51.180Z,14.39
2023-02-20T13:00:40.348Z,14.42
2023-02-20T13:03:34.538Z,14.49
2023-02-20T13:06:01.381Z,14.37
2023-02-20T13:08:33.443Z,14.49
2023-02-20T13:11:04.056Z,14.75
2023-02-20T13:13:42.545Z,14.61
2023-02-20T13:16:28.938Z,14.76
2023-02-20T13:19:06.692Z,14.84
2023-02-20T13:21:33.531Z,14.77
2023-02-20T13:24:18.756Z,14.91
2023-02-20T13:26:56.768Z,14.74
2023-02-20T13:29:27.523Z,14.95
2023-02-20T13:32:15.967Z,14.88
2023-02-20T13:34:42.551Z,14.96
2023-02-20T13:37:51.618Z,14.89
2023-02-20T13:40:26.991Z,14.77
2023-02-20T13:43:15.177Z,14.81
2023-02-20T13:45:43.962Z,15.06
2023-02-20T13:48:29.411Z,14.90
2023-02-20T13:51:14.464Z,14.92
2023-02-20T13:53:43.115Z,14.91
2023-02-20T13:56:25.189Z,14.85
2023-02-20T13:58:54.380Z,14.84
2023-02-20T14:01:20.913Z,14.87
2023-02-20T14:04:00.758Z,14.93
2023-02-20T14:06:28.250Z,15.03
2023-02-20T14:09:09.824Z,15.15
2023-02-20T14:11:39.135Z,14.99
2023-02-20T14:14:33.606Z,14.78
2023-02-20T14:17:19.594Z,15.01
2023-02-20T14:20:05.284Z,14.87
2023-02-20T14:22:35.701Z,15.07
2023-02-20T14:25:14.864Z,15.01
2023-02-20T14:27:41.442Z,15.06
2023-02-20T14:30:20.902Z,15.15
2023-02-20T14:32:53.297Z,15.25
2023-02-20T14:35:44.391Z,15.14
2023-02-20T14:38:13.763Z,15.18
2023-02-20T14:40:42.742Z,15.07
2023-02-20T14:43:21.143Z,15.10
2023-02-20T14:45:59.151Z,15.02
2023-02-20T14:48:29.040Z,15.13
2023-02-20T14:51:09.704Z,15.14
2023-02-20T14:53:37.267Z,15.11
2023-02-20T14:56:17.222Z,15.18
2023-02-20T14:58:45.891Z,15.04
2023-02-20T15:01:34.699Z,15.15
2023-02-20T15:04:07.094Z,15.25
2023-02-20T15:06:38.823Z,15.18
2023-02-20T15:09:20.959Z,15.20
2023-02-20T15:11:58.237Z,15.09
2023-02-20T15:14:32.387Z,15.19
2023-02-20T15:17:21.093Z,15.36
2023-02-20T15:19:48.095Z,15.15
2023-02-20T15:22:40.897Z,15.20
2023-02-20T15:25:29.352Z,15.13
2023-02-20T15:28:19.080Z,15.20
2023-02-20T15:31:05.419Z,15.04
2023-02-20T15:33:36.292Z,15.11
2023-02-20T15:36:04.799Z,15.24
2023-02-20T15:38:34.431Z,15.11
2023-02-20T15:41:02.845Z,15.21
2023-02-20T15:43:45.143Z,15.01
2023-02-20T15:46:14.957Z,14.86
2023-02-20T15:48:41.950Z,14.87
2023-02-20T15:51:09.565Z,14.78
2023-02-20T15:53:36.782Z,14.83
2023-02-20T15:56:04.672Z,14.77
2023-02-20T15:58:37.529Z,14.73
2023-02-20T16:01:05.049Z,14.72
2023-02-20T16:03:41.819Z,14.84
2023-02-20T16:06:16.234Z,14.55
2023-02-20T16:08:44.302Z,14.73
2023-02-20T16:11:11.773Z,14.64
2023-02-20T16:13:44.408Z,14.62
2023-02-20T16:16:34.904Z,14.60
2023-02-20T16:19:02.698Z,14.42
2023-02-20T16:21:29.250Z,14.38
2023-02-20T16:23:56.072Z,14.21
2023-02-20T16:26:27.068Z,14.20
2023-02-20T16:29:00.117Z,14.32
2023-02-20T16:31:54.665Z,14.11
2023-02-20T16:34:22.903Z,14.09
2023-02-20T16:36:49.852Z,14.03
2023-02-20T16:39:25.800Z,13.80
2023-02-20T16:41:53.058Z,13.66
2023-02-20T16:44:40.816Z,13.81
2023-02-20T16:47:12.278Z,13.63
2023-02-20T16:49:39.944Z,13.56
2023-02-20T16:52:24.193Z,13.58
2023-02-20T16:54:51.798Z,13.55
2023-02-20T16:57:19.232Z,13.57
2023-02-20T16:59:45.983Z,13.51
2023-02-20T17:02:18.019Z,13.45
2023-02-20T17:04:44.712Z,13.45
2023-02-20T17:07:11.695Z,13.52
2023-02-20T17:09:44.363Z,13.30
2023-02-20T17:12:14.065Z,13.32
2023-02-20T17:14:40.530Z,13.31
2023-02-20T17:17:07.108Z,13.35
2023-02-20T17:19:36.732Z,13.19
2023-02-20T17:22:03.188Z,13.05
2023-02-20T17:24:29.733Z,12.96
2023-02-20T17:26:56.327Z,12.89
2023-02-20T17:29:22.769Z,12.78
2023-02-20T17:31:49.737Z,12.71
2023-02-20T17:34:16.441Z,12.56
2023-02-20T17:36:48.092Z,12.59
2023-02-20T17:39:20.425Z,12.52
2023-02-20T17:41:48.450Z,12.48
2023-02-20T17:44:20.618Z,12.33
2023-02-20T17:46:48.985Z,12.38
2023-02-20T17:49:16.346Z,12.35
2023-02-20T17:51:43.931Z,12.18
2023-02-20T17:54:11.120Z,12.15
2023-02-20T17:56:42.388Z,12.12
2023-02-20T17:59:11.337Z,12.34
2023-02-20T18:01:38.242Z,12.34
2023-02-20T18:04:06.229Z,12.45
2023-02-20T18:06:33.568Z,12.52
2023-02-20T18:09:00.342Z,12.38
2023-02-20T18:11:30.315Z,12.44
2023-02-20T18:13:57.686Z,12.47
2023-02-20T18:16:26.342Z,12.38
2023-02-20T18:18:53.025Z,12.48
2023-02-20T18:21:25.448Z,12.44
2023-02-20T18:23:51.955Z,12.25
2023-02-20T18:26:19.107Z,12.23
2023-02-20T18:28:46.085Z,12.14
2023-02-20T18:31:13.552Z,12.24
2023-02-20T18:33:40.257Z,11.95
2023-02-20T18:36:08.688Z,12.03
2023-02-20T18:38:36.079Z,12.19
2023-02-20T18:41:02.823Z,12.15
2023-02-20T18:43:29.236Z,12.22
2023-02-20T18:45:56.495Z,12.07
2023-02-20T18:48:22.980Z,12.11
2023-02-20T18:50:49.900Z,12.14
2023-02-20T18:53:16.452Z,12.21
2023-02-20T18:55:43.022Z,12.11
2023-02-20T18:58:09.487Z,12.24
2023-02-20T19:00:38.596Z,12.14
2023-02-20T19:03:05.075Z,11.95
2023-02-20T19:05:31.514Z,12.05
2023-02-20T19:07:58.807Z,11.98
2023-02-20T19:10:26.951Z,11.83
2023-02-20T19:12:54.833Z,11.97
2023-02-20T19:15:24.985Z,11.88
2023-02-20T19:17:52.250Z,11.77
2023-02-20T19:20:24.524Z,11.72
2023-02-20T19:22:53.145Z,11.74
2023-02-20T19:25:20.684Z,11.74
2023-02-20T19:27:47.835Z,11.45
2023-02-20T19:30:15.176Z,11.48
2023-02-20T19:32:42.213Z,11.19
2023-02-20T19:35:09.340Z,10.94
2023-02-20T19:37:36.535Z,10.95
2023-02-20T19:40:03.175Z,10.86
2023-02-20T19:42:29.954Z,10.70
2023-02-20T19:44:56.396Z,10.74
2023-02-20T19:47:23.102Z,9.94
2023-02-20T19:49:49.751Z,9.71
2023-02-20T19:52:16.275Z,9.39
2023-02-20T19:54:47.172Z,9.31
2023-02-20T19:57:14.370Z,9.09
2023-02-20T19:59:42.693Z,8.99
2023-02-20T20:02:11.400Z,8.92
2023-02-20T20:04:38.022Z,8.78
2023-02-20T20:07:04.907Z,8.63
2023-02-20T20:09:37.499Z,8.45
2023-02-20T20:12:26.479Z,8.23
2023-02-20T20:14:53.247Z,8.08
2023-02-20T20:17:19.764Z,7.99
2023-02-20T20:19:58.487Z,7.89
2023-02-20T20:22:25.592Z,8.02
2023-02-20T20:24:52.034Z,7.99
2023-02-20T20:27:20.732Z,7.88
2023-02-20T20:29:51.034Z,7.84
2023-02-20T20:32:18.808Z,7.76
2023-02-20T20:34:52.147Z,7.69
2023-02-20T20:37:25.917Z,7.48
2023-02-20T20:39:53.660Z,7.43
2023-02-20T20:42:23.600Z,7.52
2023-02-20T20:44:54.714Z,7.32
2023-02-20T20:47:21.955Z,7.29
2023-02-20T20:49:48.508Z,7.18
2023-02-20T20:52:16.866Z,7.12
2023-02-20T20:54:43.355Z,7.19
2023-02-20T20:57:09.831Z,6.94
2023-02-20T20:59:37.750Z,6.82
2023-02-20T21:02:04.667Z,6.71
2023-02-20T21:04:31.166Z,6.74
2023-02-20T21:06:57.645Z,6.61
2023-02-20T21:09:24.168Z,6.69
2023-02-20T21:11:50.847Z,6.61
2023-02-20T21:14:18.390Z,7.12
2023-02-20T21:16:44.836Z,7.28
2023-02-20T21:19:11.493Z,7.34
2023-02-20T21:21:37.954Z,7.26
2023-02-20T21:24:04.777Z,7.29
2023-02-20T21:26:32.056Z,7.15
2023-02-20T21:28:58.549Z,7.07
2023-02-20T21:31:25.086Z,6.93
2023-02-20T21:33:53.066Z,6.84
2023-02-20T21:36:20.897Z,6.98
2023-02-20T21:38:47.364Z,6.82
2023-02-20T21:41:38.653Z,6.84
2023-02-20T21:44:24.060Z,6.78
2023-02-20T21:46:51.286Z,6.73
2023-02-20T21:49:18.091Z,6.68
2023-02-20T21:51:44.568Z,6.95
2023-02-20T21:54:11.072Z,7.05
2023-02-20T21:56:37.526Z,6.62
2023-02-20T21:59:06.180Z,6.51
2023-02-20T22:01:36.025Z,6.56
2023-02-20T22:04:03.829Z,6.49
2023-02-20T22:06:30.845Z,6.22
2023-02-20T22:09:16.083Z,6.24
2023-02-20T22:12:01.274Z,6.10
2023-02-20T22:14:46.420Z,6.06
2023-02-20T22:17:31.825Z,6.06
2023-02-20T22:20:18.195Z,6.03
2023-02-20T22:23:02.928Z,6.00
2023-02-20T22:25:48.147Z,5.97
2023-02-20T22:28:34.488Z,6.07
2023-02-20T22:31:20.546Z,5.97
2023-02-20T22:34:05.612Z,5.88
2023-02-20T22:36:51.673Z,5.83
2023-02-20T22:39:37.475Z,5.67
2023-02-20T22:42:34.422Z,5.98
2023-02-20T22:45:20.076Z,6.35
2023-02-20T22:48:05.009Z,6.67
2023-02-20T22:50:49.788Z,6.47
2023-02-20T22:53:34.627Z,6.41
2023-02-20T22:56:19.540Z,6.36
2023-02-20T22:59:04.322Z,6.26
2023-02-20T23:01:49.115Z,6.32
2023-02-20T23:04:33.792Z,6.28
2023-02-20T23:07:18.586Z,5.92
2023-02-20T23:10:03.340Z,5.98
2023-02-20T23:12:48.198Z,6.21
2023-02-20T23:15:33.083Z,6.36
2023-02-20T23:18:17.828Z,6.21
2023-02-20T23:21:03.264Z,6.22
2023-02-20T23:23:47.966Z,6.26
2023-02-20T23:26:32.931Z,6.26
2023-02-20T23:29:17.587Z,6.09
2023-02-20T23:32:03.598Z,5.89
2023-02-20T23:34:49.273Z,6.12
2023-02-20T23:37:34.533Z,5.79
2023-02-20T23:40:27.298Z,5.65
2023-02-20T23:43:20.802Z,5.52
2023-02-20T23:46:05.660Z,5.59
2023-02-20T23:48:50.476Z,5.53
2023-02-20T23:51:35.819Z,5.57
2023-02-20T23:54:20.622Z,5.52
2023-02-20T23:57:05.792Z,5.25
2023-02-20T23:59:51.251Z,5.29
